Nearby METAR Reports

 

KMRB - Martinsburg, West Virginia, USA
Distance from station: NNW 9mi, 14km
Updated: 02/21/2018 6:53am
Clear
Clear
 Wind from S
Wind: S 8 mph , 13 km/h
Temperature: 57°F , 14°C
Dew Point: 52°F , 11°C
Humidity: 82%
Barometer: 30.28 inHg , 1025.4 hPa
Clouds: Clear
Visibility: 10 miles , 16 km
2018/02/21 11:53 KMRB 211153Z 18007KT 10SM CLR 14/11 A3028 RMK AO2 SLP250 T01440111 10172 20139 53004
KOKV - Winchester Rgnl, Virginia, USA
Distance from station: SW 17mi, 28km
Updated: 02/21/2018 7:35am
Clear
Clear
 Wind from WSW
Wind: WSW 9 mph , 15 km/h
Temperature: 59°F , 15°C
Dew Point: 52°F , 11°C
Humidity: 77%
Barometer: 30.33 inHg , 1027.1 hPa
Clouds: Clear
Visibility: 10 miles , 16 km
2018/02/21 12:35 KOKV 211235Z AUTO 24008KT 10SM CLR 15/11 A3033 RMK AO2
 
KJYO - Leesburg/Godfrey, Virginia, USA
Distance from station: SE 23mi, 38km
Updated: 02/21/2018 7:35am
Clear
Clear
 Wind from SSW
Wind: SSW 9 mph , 15 km/h
Temperature: 59°F , 15°C
Dew Point: 59°F , 15°C
Humidity: 100%
Barometer: 30.33 inHg , 1027.1 hPa
Clouds: Clear
Visibility: 10 miles , 16 km
2018/02/21 12:35 KJYO 211235Z AUTO 20008KT 10SM CLR 15/15 A3033 RMK AO2
KFDK - Frederick, Maryland, USA
Distance from station: ENE 30mi, 48km
Updated: 02/21/2018 6:53am
Shallow fog, Clear
Shallow fog, Clear
 Wind from calm
Wind: Calm
Temperature: 50°F , 10°C
Dew Point: 50°F , 10°C
Humidity: 100%
Barometer: 30.33 inHg , 1027.1 hPa
Summary: Shallow Fog
Clouds: Clear
Visibility: 10 miles , 16 km
2018/02/21 11:53 KFDK 211153Z 00000KT 10SM MIFG SKC 10/10 A3033
 
KHGR - Hagerstown, Maryland, USA
Distance from station: NNE 30mi, 48km
Updated: 02/21/2018 6:53am
Clear
Clear
 Wind from S
Wind: S 10 mph , 17 km/h
Temperature: 61°F , 16°C
Dew Point: 54°F , 12°C
Humidity: 77%
Barometer: 30.28 inHg , 1025.4 hPa
Clouds: Clear
Visibility: 10 miles , 16 km
2018/02/21 11:53 KHGR 211153Z 19009KT 10SM CLR 16/12 A3028 RMK AO2 SLP263 T01560117 10172 20150 51004
KIAD - Wash Dc/Dulles, Virginia, USA
Distance from station: SE 34mi, 55km
Updated: 02/21/2018 6:52am
Partly cloudy
Partly cloudy
 Wind from S
Wind: S 10 mph , 17 km/h
Temperature: 59°F , 15°C
Dew Point: 57°F , 14°C
Humidity: 94%
Barometer: 30.33 inHg , 1027.1 hPa
Clouds: Partly cloudy
Visibility: 10 miles , 16 km
Cloud details: Partly cloudy 25000 ft
2018/02/21 11:52 KIAD 211152Z 19009KT 10SM SCT250 15/14 A3033 RMK AO2 SLP268 T01500144 10172 20150 51005
 
KRSP - Nsf Thurmont, Maryland, USA
Distance from station: NE 34mi, 55km
Updated: 02/21/2018 6:54am
Clear
Clear
 Wind from W
Wind: W 13 mph , 20 km/h, Gust: 24 mph , 39 km/h
Temperature: 59°F , 15°C
Dew Point: 54°F , 12°C
Humidity: 82%
Barometer: 30.31 inHg , 1026.4 hPa
Clouds: Clear
2018/02/21 11:54 KRSP 211154Z AUTO 26011G21KT CLR 15/12 A3031 RMK AO2 SLP263 T01500117 10156 20139 51003 PWINO $
KGAI - Gaithersburg, Maryland, USA
Distance from station: E 40mi, 64km
Updated: 02/21/2018 6:56am
Clear
Clear
 Wind from SW
Wind: SW 7 mph , 11 km/h
Temperature: 63°F , 17°C
Dew Point: 57°F , 14°C
Humidity: 83%
Barometer: 30.33 inHg , 1027.1 hPa
Clouds: Clear
Visibility: 10 miles , 16 km
2018/02/21 11:56 KGAI 211156Z AUTO 22006KT 10SM CLR 17/14 A3033 RMK AO2 SLP295 T01670144 10178 20161 51004
 
KRYT - Fountain Dale, Pennsylvania, USA
Distance from station: NE 40mi, 64km
Updated: 11/13/2017 7:53am
NOT Current
Mist, Overcast
Mist, Overcast
 Wind from calm
Wind: Calm
Temperature: 37°F , 3°C
Dew Point: 34°F , 1°C
Humidity: 87%
Barometer: 30.31 inHg , 1026.4 hPa
Summary: Mist
Clouds: Overcast
Visibility: 5 miles , 8 km
Cloud details: Overcast 700 ft
2017/11/13 12:53 KRYT 131253Z AUTO 00000KT 5SM BR OVC007 03/01 A3031 RMK AO2 SLP275 T00280011 TSNO $
KHEF - Manassas Muni, Virginia, USA
Distance from station: SSE 44mi, 72km
Updated: 02/21/2018 6:56am
Clear
Clear
 Wind from SSW
Wind: SSW 7 mph , 11 km/h
Temperature: 59°F , 15°C
Dew Point: 57°F , 14°C
Humidity: 94%
Barometer: 30.34 inHg , 1027.4 hPa
Clouds: Clear
Visibility: 10 miles , 16 km
2018/02/21 11:56 KHEF 211156Z 20006KT 10SM CLR 15/14 A3034 RMK AO2 SLP285 6//// 7//// T01500139 10172 20150 51006 PNO $
 
KHWY - Warrenton, Virginia, USA
Distance from station: SSE 50mi, 80km
Updated: 02/21/2018 7:35am
Clear
Clear
 Wind from SSW
Wind: SSW 10 mph , 17 km/h, Gust: 16 mph , 26 km/h
Temperature: 63°F , 17°C
Dew Point: 57°F , 14°C
Humidity: 83%
Barometer: 30.35 inHg , 1027.8 hPa
Clouds: Clear
Visibility: 10 miles , 16 km
2018/02/21 12:35 KHWY 211235Z AUTO 20009G14KT 10SM CLR 17/14 A3035 RMK AO2 T01710137